Time;durP1;ratioP1;P1;durP2;ratioP2;P2;SDS_P1;SDS_P2;PMS_P1;PMS_P2;Temp;Humidity;BMP_temperature;BMP_pressure;BME280_temperature;BME280_humidity;BME280_pressure;Samples;Min_cycle;Max_cycle;Signal;HPM_P1;HPM_P2
2022/08/20 00:00:39;;;;;;;1.30;1.20;;;17.80;99.90;;;;;;5033020;28;20108;-52
2022/08/20 00:03:14;;;;;;;29.50;1.58;;;17.80;99.90;;;;;;5032962;28;20366;-51
2022/08/20 00:05:45;;;;;;;1.10;1.10;;;17.70;99.90;;;;;;5033458;28;20124;-51
2022/08/20 00:08:11;;;;;;;1.75;1.27;;;17.70;99.90;;;;;;5032826;28;20060;-51
2022/08/20 00:10:39;;;;;;;2.80;1.27;;;17.60;99.90;;;;;;5032979;28;20053;-53
2022/08/20 00:13:09;;;;;;;1.35;1.25;;;17.60;99.90;;;;;;5032674;28;20022;-53
2022/08/20 00:15:37;;;;;;;7.22;1.25;;;17.60;99.90;;;;;;5032879;28;20021;-53
2022/08/20 00:18:04;;;;;;;1.15;1.10;;;17.50;99.90;;;;;;5032720;28;20022;-54
2022/08/20 00:20:34;;;;;;;4.10;1.10;;;17.60;99.90;;;;;;5033114;28;20029;-52
2022/08/20 00:23:00;;;;;;;0.98;0.98;;;17.60;99.90;;;;;;5032685;28;20033;-51
2022/08/20 00:25:29;;;;;;;1.35;1.10;;;17.60;99.90;;;;;;5032642;28;20090;-52
2022/08/20 00:27:56;;;;;;;2.63;1.30;;;17.60;99.90;;;;;;5032733;28;20013;-54
2022/08/20 00:30:27;;;;;;;0.90;0.90;;;17.60;99.90;;;;;;5031150;28;20112;-52
2022/08/20 00:32:57;;;;;;;1.60;0.90;;;17.60;99.90;;;;;;5032592;28;20071;-55
2022/08/20 00:35:26;;;;;;;1.55;0.93;;;17.70;99.90;;;;;;5032830;28;20079;-50
2022/08/20 00:37:52;;;;;;;1.77;0.98;;;17.70;99.90;;;;;;5032333;28;20100;-54
2022/08/20 00:40:22;;;;;;;1.10;1.00;;;17.70;99.90;;;;;;5032334;28;20740;-52
2022/08/20 00:42:52;;;;;;;1.10;1.00;;;17.80;99.90;;;;;;5032114;28;20030;-50
2022/08/20 00:45:19;;;;;;;1.40;1.30;;;17.80;99.90;;;;;;5032280;28;20029;-53
2022/08/20 00:47:46;;;;;;;1.17;1.00;;;17.80;99.90;;;;;;5032195;28;20373;-55
2022/08/20 00:50:21;;;;;;;3.22;1.02;;;17.80;99.90;;;;;;5046537;28;20029;-51
2022/08/20 00:52:50;;;;;;;2.53;1.27;;;17.80;99.90;;;;;;5051949;28;20384;-53
2022/08/20 00:55:18;;;;;;;1.85;1.75;;;17.80;99.90;;;;;;5051894;28;20025;-52
2022/08/20 00:57:53;;;;;;;3.33;1.52;;;17.70;99.90;;;;;;5051774;28;20142;-53
2022/08/20 01:00:46;;;;;;;2.42;1.40;;;17.70;99.90;;;;;;5051750;28;20159;-55
2022/08/20 01:03:13;;;;;;;4.72;1.75;;;17.60;99.90;;;;;;5050881;28;20080;-53
2022/08/20 01:05:45;;;;;;;2.47;1.60;;;17.60;99.90;;;;;;5051846;28;20033;-53
2022/08/20 01:08:11;;;;;;;1.70;1.60;;;17.50;99.90;;;;;;5034138;28;20041;-54
2022/08/20 01:10:40;;;;;;;1.75;1.60;;;17.50;99.90;;;;;;5031884;28;20104;-51
2022/08/20 01:13:13;;;;;;;3.70;1.98;;;17.40;99.90;;;;;;5031525;28;20428;-53
2022/08/20 01:15:42;;;;;;;2.03;1.77;;;17.40;99.90;;;;;;5031755;28;20033;-50
2022/08/20 01:18:19;;;;;;;2.45;2.25;;;17.40;99.90;;;;;;5031668;28;20252;-51
2022/08/20 01:20:56;;;;;;;2.42;2.22;;;17.30;99.90;;;;;;5031633;28;20483;-53
2022/08/20 01:23:56;;;;;;;5.72;2.53;;;17.30;99.90;;;;;;5031452;28;20461;-53
2022/08/20 01:26:33;;;;;;;2.10;1.88;;;17.30;99.90;;;;;;5048981;28;20044;-52
2022/08/20 01:29:06;;;;;;;2.05;1.92;;;17.30;99.90;;;;;;5051517;28;20037;-51
2022/08/20 01:31:35;;;;;;;3.78;1.90;;;17.30;99.90;;;;;;5049913;28;20033;-51
2022/08/20 01:34:04;;;;;;;1.90;1.73;;;17.30;99.90;;;;;;5051503;28;20025;-53
2022/08/20 01:36:35;;;;;;;1.83;1.73;;;17.30;99.90;;;;;;5051650;28;20029;-51
2022/08/20 01:39:02;;;;;;;1.90;1.63;;;17.20;99.90;;;;;;5049771;28;20100;-53
2022/08/20 01:41:42;;;;;;;2.95;1.80;;;17.20;99.90;;;;;;5051484;28;20642;-53
2022/08/20 01:44:10;;;;;;;2.13;1.92;;;17.10;99.90;;;;;;5051221;28;20464;-53
2022/08/20 01:46:39;;;;;;;1.88;1.75;;;17.10;99.90;;;;;;5051485;28;20025;-53
2022/08/20 01:49:29;;;;;;;2.20;2.00;;;17.20;99.90;;;;;;5051296;28;20048;-50
2022/08/20 01:51:58;;;;;;;1.92;1.83;;;17.10;99.90;;;;;;5046750;28;20045;-52
2022/08/20 01:54:25;;;;;;;2.33;2.13;;;17.00;99.90;;;;;;5031210;28;20084;-52
2022/08/20 01:56:54;;;;;;;2.13;1.90;;;17.00;99.90;;;;;;5034687;28;20484;-54
2022/08/20 01:59:20;;;;;;;2.67;2.40;;;16.90;99.90;;;;;;5035174;28;20476;-51
2022/08/20 02:01:46;;;;;;;2.83;2.10;;;16.90;99.90;;;;;;5035490;28;20100;-51
2022/08/20 02:04:12;;;;;;;2.42;2.22;;;16.80;99.90;;;;;;5035145;28;20101;-52
2022/08/20 02:06:43;;;;;;;2.10;2.00;;;16.80;99.90;;;;;;5039324;28;20017;-51
2022/08/20 02:09:09;;;;;;;2.75;2.55;;;16.80;99.90;;;;;;5055113;28;20063;-52
2022/08/20 02:11:36;;;;;;;2.50;2.30;;;16.70;99.90;;;;;;5055145;28;20013;-52
2022/08/20 02:14:06;;;;;;;2.72;2.53;;;16.80;99.90;;;;;;5055010;28;20525;-54
2022/08/20 02:16:36;;;;;;;2.80;2.60;;;16.70;99.90;;;;;;5055113;28;20048;-53
2022/08/20 02:19:30;;;;;;;2.70;2.50;;;16.70;99.90;;;;;;5055040;28;20100;-55
2022/08/20 02:21:59;;;;;;;2.90;2.60;;;16.70;99.90;;;;;;5046432;28;20087;-54
2022/08/20 02:24:25;;;;;;;2.88;2.58;;;16.70;99.90;;;;;;5034878;28;20037;-52
2022/08/20 02:26:51;;;;;;;3.42;3.13;;;16.70;99.90;;;;;;5034901;28;20372;-51
2022/08/20 02:29:17;;;;;;;3.45;3.15;;;16.70;99.90;;;;;;5034623;28;20022;-51
2022/08/20 02:31:44;;;;;;;2.90;2.60;;;16.60;99.90;;;;;;5043409;28;20029;-52
2022/08/20 02:34:16;;;;;;;2.42;2.22;;;16.60;99.90;;;;;;5054625;28;20622;-51
2022/08/20 02:36:44;;;;;;;3.17;2.88;;;16.60;99.90;;;;;;5054606;28;20379;-51
2022/08/20 02:39:12;;;;;;;3.25;2.95;;;16.70;99.90;;;;;;5054546;28;20021;-51
2022/08/20 02:41:38;;;;;;;2.65;2.45;;;16.70;99.90;;;;;;5054573;28;20040;-52
2022/08/20 02:44:05;;;;;;;2.88;2.55;;;16.70;99.90;;;;;;5054561;28;20028;-52
2022/08/20 02:46:32;;;;;;;3.63;2.55;;;16.70;99.90;;;;;;5054472;28;20167;-52
2022/08/20 02:48:58;;;;;;;7.07;2.75;;;16.70;99.90;;;;;;5054511;28;20021;-51
2022/08/20 02:51:24;;;;;;;5.68;2.80;;;16.70;99.90;;;;;;5053437;28;20029;-53
2022/08/20 02:53:50;;;;;;;3.78;3.33;;;16.70;99.90;;;;;;5054413;28;20029;-52
2022/08/20 02:56:16;;;;;;;4.15;3.60;;;16.70;99.90;;;;;;5054011;28;20435;-50
2022/08/20 02:58:42;;;;;;;3.22;3.03;;;16.70;99.90;;;;;;5053093;28;20032;-52
2022/08/20 03:01:12;;;;;;;3.40;3.10;;;16.70;99.90;;;;;;5054166;28;20029;-53
2022/08/20 03:03:39;;;;;;;3.50;3.25;;;16.60;99.90;;;;;;5052886;28;20083;-55
2022/08/20 03:06:07;;;;;;;4.20;3.88;;;16.60;99.90;;;;;;5053588;28;20032;-51
2022/08/20 03:08:34;;;;;;;4.75;4.32;;;16.60;99.90;;;;;;5054013;28;20021;-53
2022/08/20 03:11:00;;;;;;;6.00;4.63;;;16.60;99.90;;;;;;5053898;28;20036;-53
2022/08/20 03:13:26;;;;;;;4.95;4.55;;;16.50;99.90;;;;;;5053840;28;20112;-51
2022/08/20 03:15:55;;;;;;;6.88;5.15;;;16.50;99.90;;;;;;5053898;28;20105;-54
2022/08/20 03:18:23;;;;;;;5.55;5.05;;;16.50;99.90;;;;;;5053579;28;20067;-51
2022/08/20 03:20:49;;;;;;;8.00;5.40;;;16.50;99.90;;;;;;5039085;28;20057;-51
2022/08/20 03:23:18;;;;;;;6.13;5.53;;;16.50;99.90;;;;;;5033954;28;20385;-50
2022/08/20 03:25:44;;;;;;;5.80;5.13;;;16.40;99.90;;;;;;5033815;28;20032;-52
2022/08/20 03:28:10;;;;;;;4.88;4.43;;;16.40;99.90;;;;;;5035827;28;20124;-51
2022/08/20 03:30:36;;;;;;;6.70;5.07;;;16.40;99.90;;;;;;5032361;28;20480;-51
2022/08/20 03:33:01;;;;;;;5.50;5.05;;;16.40;99.90;;;;;;5033430;28;20029;-53
2022/08/20 03:35:29;;;;;;;5.20;4.72;;;16.40;99.90;;;;;;5033549;28;20048;-51
2022/08/20 03:37:55;;;;;;;6.75;6.15;;;16.40;99.90;;;;;;5033541;28;20033;-51
2022/08/20 03:40:26;;;;;;;6.30;5.57;;;16.30;99.90;;;;;;5033018;28;20033;-52
2022/08/20 03:42:52;;;;;;;6.30;5.72;;;16.30;99.90;;;;;;5037448;28;20033;-52
2022/08/20 03:45:20;;;;;;;4.68;4.28;;;16.40;99.90;;;;;;5053118;28;20033;-54
2022/08/20 03:47:46;;;;;;;6.60;5.80;;;16.40;99.90;;;;;;5053406;28;20052;-50
2022/08/20 03:50:13;;;;;;;7.03;6.43;;;16.30;99.90;;;;;;5053127;28;20443;-52
2022/08/20 03:52:38;;;;;;;8.75;6.10;;;16.40;99.90;;;;;;5053305;28;20017;-51
2022/08/20 03:55:07;;;;;;;8.55;6.93;;;16.30;99.90;;;;;;5053100;28;20691;-54
2022/08/20 03:57:33;;;;;;;8.43;7.72;;;16.30;99.90;;;;;;5049190;28;20137;-51
2022/08/20 03:59:59;;;;;;;9.50;7.38;;;16.30;99.90;;;;;;5032798;28;20037;-51
2022/08/20 04:02:26;;;;;;;9.27;8.38;;;16.30;99.90;;;;;;5032947;28;20040;-52
2022/08/20 04:04:51;;;;;;;8.32;7.53;;;16.20;99.90;;;;;;5033172;28;20138;-51
2022/08/20 04:07:26;;;;;;;9.55;8.60;;;16.20;99.90;;;;;;5032889;28;20192;-51
2022/08/20 04:09:54;;;;;;;9.93;8.93;;;16.20;99.90;;;;;;5032934;28;20136;-54
2022/08/20 04:12:21;;;;;;;9.30;8.40;;;16.20;99.90;;;;;;5032782;28;20112;-54
2022/08/20 04:14:47;;;;;;;9.35;8.35;;;16.20;99.90;;;;;;5033141;28;20033;-53
2022/08/20 04:17:13;;;;;;;9.88;8.82;;;16.10;99.90;;;;;;5032755;28;20049;-53
2022/08/20 04:19:40;;;;;;;9.88;8.82;;;16.10;99.90;;;;;;5032247;28;20072;-52
2022/08/20 04:22:06;;;;;;;9.25;7.88;;;16.10;99.90;;;;;;5031993;28;20400;-53
2022/08/20 04:24:33;;;;;;;9.23;8.32;;;16.10;99.90;;;;;;5031383;28;20147;-56
2022/08/20 04:27:01;;;;;;;9.23;8.32;;;16.10;99.90;;;;;;5031314;28;20022;-53
2022/08/20 04:29:28;;;;;;;9.07;8.10;;;16.20;99.90;;;;;;5050429;28;20044;-54
2022/08/20 04:31:54;;;;;;;8.55;7.68;;;16.20;99.90;;;;;;5051204;28;20032;-53
2022/08/20 04:34:20;;;;;;;8.07;7.13;;;16.30;99.90;;;;;;5050850;28;20048;-53
2022/08/20 04:36:46;;;;;;;7.45;6.70;;;16.30;99.90;;;;;;5051217;28;20052;-52
2022/08/20 04:39:15;;;;;;;7.20;6.53;;;16.30;99.90;;;;;;5050987;28;20500;-52
2022/08/20 04:41:41;;;;;;;8.07;7.38;;;16.30;99.90;;;;;;5050980;28;20063;-54
2022/08/20 04:44:08;;;;;;;6.40;5.70;;;16.20;99.90;;;;;;5031171;28;20325;-52
2022/08/20 04:46:34;;;;;;;5.75;4.75;;;16.30;99.90;;;;;;5031106;28;20025;-54
2022/08/20 04:49:02;;;;;;;6.10;5.00;;;16.20;99.90;;;;;;5030940;28;20362;-52
2022/08/20 04:51:28;;;;;;;7.28;5.28;;;16.20;99.90;;;;;;5030938;28;20218;-53
2022/08/20 04:53:55;;;;;;;6.18;5.47;;;16.30;99.90;;;;;;5030957;28;20022;-55
2022/08/20 04:56:26;;;;;;;5.07;3.97;;;16.30;99.90;;;;;;5029239;28;20536;-55
2022/08/20 04:58:56;;;;;;;5.93;4.43;;;16.40;99.90;;;;;;5030856;28;20033;-56
2022/08/20 05:01:22;;;;;;;4.15;3.80;;;16.40;99.90;;;;;;5029466;28;20108;-55
2022/08/20 05:03:48;;;;;;;4.75;3.58;;;16.40;99.90;;;;;;5029468;28;20144;-53
2022/08/20 05:06:16;;;;;;;3.58;3.28;;;16.40;99.90;;;;;;5030686;28;20083;-52
2022/08/20 05:08:43;;;;;;;3.95;3.65;;;16.40;99.90;;;;;;5030484;28;20112;-55
2022/08/20 05:11:09;;;;;;;4.53;4.10;;;16.40;99.90;;;;;;5030747;28;20440;-55
2022/08/20 05:13:35;;;;;;;4.38;3.97;;;16.40;99.90;;;;;;5048522;28;20341;-51
2022/08/20 05:16:03;;;;;;;3.03;2.72;;;16.30;99.90;;;;;;5050508;28;20025;-53
2022/08/20 05:18:32;;;;;;;3.28;3.05;;;16.40;99.90;;;;;;5050530;28;20024;-54
2022/08/20 05:21:03;;;;;;;3.88;3.53;;;16.40;99.90;;;;;;5050502;28;20025;-54
2022/08/20 05:23:29;;;;;;;5.55;3.45;;;16.30;99.90;;;;;;5050766;28;20025;-54
2022/08/20 05:25:56;;;;;;;6.28;3.42;;;16.30;99.90;;;;;;5050442;28;20025;-55
2022/08/20 05:28:25;;;;;;;5.85;4.32;;;16.20;99.90;;;;;;5049858;28;20029;-56
2022/08/20 05:30:52;;;;;;;4.68;4.20;;;16.10;99.90;;;;;;5049321;28;20033;-53
2022/08/20 05:33:20;;;;;;;5.63;5.07;;;16.00;99.90;;;;;;5050035;28;20104;-54
2022/08/20 05:35:48;;;;;;;8.00;4.82;;;15.90;99.90;;;;;;5050074;28;20050;-54
2022/08/20 05:38:16;;;;;;;3.85;3.55;;;16.00;99.90;;;;;;5048816;28;20032;-54
2022/08/20 05:40:44;;;;;;;4.70;4.30;;;16.00;99.90;;;;;;5050235;28;20029;-53
2022/08/20 05:43:10;;;;;;;4.80;4.30;;;15.90;99.90;;;;;;5031214;28;20388;-54
2022/08/20 05:45:39;;;;;;;3.83;3.40;;;15.90;99.90;;;;;;5030272;28;20493;-54
2022/08/20 05:48:13;;;;;;;4.25;3.90;;;15.90;99.90;;;;;;5029886;28;20037;-55
2022/08/20 05:50:41;;;;;;;7.18;3.50;;;15.90;99.90;;;;;;5029978;28;20029;-54
2022/08/20 05:53:07;;;;;;;4.85;4.10;;;15.90;99.90;;;;;;5029934;28;20029;-54
2022/08/20 05:55:36;;;;;;;4.82;3.83;;;15.80;99.90;;;;;;5030074;28;20021;-52
2022/08/20 05:58:13;;;;;;;5.03;3.97;;;15.80;99.90;;;;;;5030385;28;20427;-56
2022/08/20 06:00:39;;;;;;;4.65;4.25;;;15.80;99.90;;;;;;5029848;28;20095;-56
2022/08/20 06:05:49;;;;;;;4.05;3.75;;;15.80;99.90;;;;;;5030225;28;20035;-52
2022/08/20 06:08:15;;;;;;;6.43;4.93;;;15.80;99.90;;;;;;5029940;28;20030;-52
2022/08/20 06:10:42;;;;;;;5.68;4.43;;;15.80;99.90;;;;;;5029883;28;20104;-53
2022/08/20 06:13:08;;;;;;;6.30;5.07;;;15.80;99.90;;;;;;5029562;28;20473;-54
2022/08/20 06:15:34;;;;;;;8.95;4.72;;;15.80;99.90;;;;;;5028487;28;20341;-55
2022/08/20 06:18:00;;;;;;;5.40;4.90;;;15.70;99.90;;;;;;5028764;28;20045;-52
2022/08/20 06:20:27;;;;;;;6.20;5.00;;;15.70;99.90;;;;;;5028541;28;20543;-54
2022/08/20 06:22:54;;;;;;;6.45;4.85;;;15.70;99.90;;;;;;5029742;28;20033;-52
2022/08/20 06:25:19;;;;;;;5.53;4.78;;;15.70;99.90;;;;;;5029759;28;20036;-53
2022/08/20 06:27:45;;;;;;;7.80;5.20;;;15.80;99.90;;;;;;5029653;28;20122;-51
2022/08/20 06:30:13;;;;;;;6.30;5.63;;;15.80;99.90;;;;;;5029649;28;20533;-52
2022/08/20 06:32:38;;;;;;;7.90;5.90;;;15.90;99.90;;;;;;5029800;28;20025;-54
2022/08/20 06:35:07;;;;;;;5.47;4.97;;;15.90;99.90;;;;;;5029567;28;20029;-54
2022/08/20 06:37:35;;;;;;;5.63;5.13;;;15.90;99.90;;;;;;5029754;28;20033;-53
2022/08/20 06:40:16;;;;;;;6.47;5.88;;;15.90;99.90;;;;;;5030554;28;20018;-52
2022/08/20 06:42:44;;;;;;;9.63;5.68;;;15.80;99.90;;;;;;5052421;28;20478;-55
2022/08/20 06:45:16;;;;;;;5.38;4.88;;;16.00;99.90;;;;;;5053262;28;20029;-52
2022/08/20 06:47:44;;;;;;;6.18;5.15;;;16.00;99.90;;;;;;5053135;28;20025;-53
2022/08/20 06:50:14;;;;;;;6.80;6.13;;;16.10;99.90;;;;;;5052926;28;20128;-51
2022/08/20 06:52:40;;;;;;;6.82;6.13;;;16.10;99.90;;;;;;5053159;28;20036;-50
2022/08/20 06:55:09;;;;;;;7.22;6.40;;;16.20;99.90;;;;;;5052490;28;20013;-54
2022/08/20 06:57:35;;;;;;;9.10;6.40;;;16.30;99.90;;;;;;5052967;28;20060;-54
2022/08/20 07:00:04;;;;;;;8.38;6.05;;;16.20;99.90;;;;;;5051875;28;20033;-56
2022/08/20 07:02:29;;;;;;;7.72;6.75;;;16.20;99.90;;;;;;5052875;28;20391;-55
2022/08/20 07:04:55;;;;;;;8.40;6.63;;;16.20;99.90;;;;;;5052906;28;20021;-52
2022/08/20 07:07:21;;;;;;;6.55;5.90;;;16.30;99.90;;;;;;5052605;28;20025;-55
2022/08/20 07:09:47;;;;;;;7.78;7.00;;;16.30;99.90;;;;;;5049351;28;20570;-52
2022/08/20 07:12:13;;;;;;;6.97;6.28;;;16.30;99.90;;;;;;5032699;28;20021;-55
2022/08/20 07:14:39;;;;;;;6.38;5.78;;;16.30;99.90;;;;;;5032804;28;20087;-52
2022/08/20 07:17:05;;;;;;;7.93;6.45;;;16.40;99.90;;;;;;5033005;28;20029;-53
2022/08/20 07:19:31;;;;;;;7.15;6.47;;;16.30;99.90;;;;;;5032564;28;20400;-55
2022/08/20 07:21:57;;;;;;;11.02;6.00;;;16.20;99.90;;;;;;5031449;28;20325;-53
2022/08/20 07:24:23;;;;;;;7.43;6.75;;;16.30;99.90;;;;;;5032751;28;20030;-54
2022/08/20 07:26:50;;;;;;;7.53;6.82;;;16.40;99.90;;;;;;5032479;28;20108;-54
2022/08/20 07:29:17;;;;;;;8.35;7.13;;;16.40;99.90;;;;;;5032506;28;20045;-52
2022/08/20 07:34:27;;;;;;;6.93;6.30;;;16.50;99.90;;;;;;5032713;28;20075;-56
2022/08/20 07:36:52;;;;;;;8.48;7.68;;;16.50;99.90;;;;;;5032386;28;20033;-52
2022/08/20 07:39:20;;;;;;;7.82;7.03;;;16.40;99.90;;;;;;5035879;28;20027;-54
2022/08/20 07:42:01;;;;;;;8.35;7.25;;;16.50;99.90;;;;;;5052304;28;20056;-54
2022/08/20 07:44:28;;;;;;;6.63;6.00;;;16.50;99.90;;;;;;5052295;28;20036;-55
2022/08/20 07:46:54;;;;;;;9.07;6.55;;;16.60;99.90;;;;;;5052002;28;20029;-53
2022/08/20 07:49:20;;;;;;;7.07;6.40;;;16.60;99.90;;;;;;5052058;28;20041;-51
2022/08/20 07:51:46;;;;;;;8.82;6.72;;;16.60;99.90;;;;;;5050717;28;20068;-55
2022/08/20 07:54:12;;;;;;;8.63;6.90;;;16.70;99.90;;;;;;5046118;28;20033;-53
2022/08/20 07:56:37;;;;;;;6.63;6.03;;;16.80;99.90;;;;;;5040112;28;20044;-53
2022/08/20 07:59:03;;;;;;;8.52;7.10;;;16.90;99.90;;;;;;5051820;28;20025;-55
2022/08/20 08:01:30;;;;;;;6.78;6.10;;;17.00;99.90;;;;;;5050058;28;20074;-54
2022/08/20 08:03:57;;;;;;;6.90;6.30;;;16.90;99.90;;;;;;5051672;28;20020;-52
2022/08/20 08:06:25;;;;;;;6.78;6.18;;;17.00;99.90;;;;;;5051636;28;20102;-53
2022/08/20 08:08:51;;;;;;;7.93;7.22;;;16.90;99.90;;;;;;5050325;28;20029;-52
2022/08/20 08:11:18;;;;;;;8.20;7.40;;;17.00;99.90;;;;;;5050029;28;20104;-53
2022/08/20 08:13:45;;;;;;;7.82;7.10;;;17.00;99.90;;;;;;5049837;28;20029;-55
2022/08/20 08:16:10;;;;;;;7.80;7.00;;;17.00;99.90;;;;;;5036019;28;20461;-55
2022/08/20 08:18:43;;;;;;;7.68;6.65;;;17.00;99.90;;;;;;5030352;28;20036;-55
2022/08/20 08:21:11;;;;;;;11.38;7.15;;;17.00;99.90;;;;;;5030214;28;20029;-54
2022/08/20 08:23:43;;;;;;;7.90;7.10;;;17.00;99.90;;;;;;5030967;28;20032;-55
2022/08/20 08:26:10;;;;;;;9.82;6.82;;;17.10;99.90;;;;;;5031389;28;20459;-54
2022/08/20 08:28:38;;;;;;;8.75;6.70;;;17.10;99.90;;;;;;5031292;28;20502;-53
2022/08/20 08:31:04;;;;;;;7.72;6.93;;;17.10;99.90;;;;;;5044436;28;20041;-53
2022/08/20 08:33:31;;;;;;;8.25;7.45;;;17.10;99.90;;;;;;5051358;28;20029;-52
2022/08/20 08:35:58;;;;;;;8.95;7.28;;;17.00;99.90;;;;;;5051214;28;20028;-52
2022/08/20 08:38:25;;;;;;;7.97;7.18;;;17.10;99.90;;;;;;5051050;28;20021;-51
2022/08/20 08:40:57;;;;;;;8.90;7.40;;;17.10;99.90;;;;;;5051145;28;20031;-53
2022/08/20 08:43:26;;;;;;;14.30;7.95;;;17.20;99.90;;;;;;5050918;28;20049;-52
2022/08/20 08:46:01;;;;;;;7.88;7.13;;;17.10;99.90;;;;;;5035850;28;20018;-56
2022/08/20 08:48:37;;;;;;;10.63;7.75;;;17.20;99.90;;;;;;5031086;28;20025;-52
2022/08/20 08:51:11;;;;;;;9.10;8.02;;;17.30;99.90;;;;;;5030783;28;20507;-53
2022/08/20 08:53:53;;;;;;;9.18;7.13;;;17.30;99.90;;;;;;5031000;28;20029;-54
2022/08/20 08:56:22;;;;;;;8.65;6.95;;;17.40;99.90;;;;;;5029249;28;20045;-55
2022/08/20 08:58:48;;;;;;;8.10;7.32;;;17.50;99.90;;;;;;5049516;28;20483;-53
2022/08/20 09:01:17;;;;;;;10.15;6.30;;;17.50;99.90;;;;;;5050602;28;20456;-54
2022/08/20 09:03:47;;;;;;;8.48;7.57;;;17.50;99.90;;;;;;5050632;28;20025;-56
2022/08/20 09:06:20;;;;;;;10.30;7.90;;;17.40;99.90;;;;;;5050306;28;20024;-52
2022/08/20 09:08:51;;;;;;;8.82;7.53;;;17.50;99.90;;;;;;5050650;28;20021;-55
2022/08/20 09:11:20;;;;;;;9.13;7.70;;;17.50;99.90;;;;;;5050034;28;20060;-54
2022/08/20 09:13:46;;;;;;;10.93;8.02;;;17.50;99.90;;;;;;5051744;28;20025;-53
2022/08/20 09:16:13;;;;;;;10.13;7.90;;;17.50;99.90;;;;;;5051051;28;20021;-53
2022/08/20 09:18:39;;;;;;;9.27;8.32;;;17.60;99.90;;;;;;5051759;28;20036;-55
2022/08/20 09:21:06;;;;;;;9.00;8.10;;;17.60;99.90;;;;;;5052555;28;20040;-56
2022/08/20 09:23:32;;;;;;;12.10;8.93;;;17.70;99.90;;;;;;5057249;28;20032;-54
2022/08/20 09:25:58;;;;;;;12.55;8.38;;;17.70;99.90;;;;;;5038199;28;20117;-53
2022/08/20 09:28:24;;;;;;;11.82;9.25;;;17.70;99.90;;;;;;5058421;28;20494;-51
2022/08/20 09:30:50;;;;;;;9.45;8.48;;;17.70;99.90;;;;;;5058771;28;20085;-56
2022/08/20 09:33:15;;;;;;;12.20;9.10;;;17.70;99.90;;;;;;5054335;28;20024;-56
2022/08/20 09:35:43;;;;;;;11.68;9.82;;;17.80;99.90;;;;;;5039352;28;20060;-56
2022/08/20 09:38:09;;;;;;;10.30;8.70;;;17.70;99.90;;;;;;5039542;28;20140;-55
2022/08/20 09:40:35;;;;;;;17.20;9.27;;;17.80;99.90;;;;;;5037637;28;20162;-56
2022/08/20 09:43:03;;;;;;;10.45;9.38;;;17.80;99.90;;;;;;5055597;28;20040;-54
2022/08/20 09:45:30;;;;;;;9.30;8.40;;;17.70;99.90;;;;;;5034487;28;20045;-56
2022/08/20 09:47:55;;;;;;;17.85;8.68;;;17.70;99.90;;;;;;5036774;28;20284;-53
2022/08/20 09:50:21;;;;;;;10.50;9.10;;;17.60;99.90;;;;;;5051918;28;20037;-55
2022/08/20 09:52:49;;;;;;;12.05;9.07;;;17.60;99.90;;;;;;5057374;28;20021;-53
2022/08/20 09:55:23;;;;;;;10.20;9.13;;;17.50;99.90;;;;;;5056290;28;20371;-54
2022/08/20 09:57:50;;;;;;;10.23;9.10;;;17.60;99.90;;;;;;5036284;28;20068;-56
2022/08/20 10:00:16;;;;;;;11.40;10.25;;;17.60;99.90;;;;;;5038123;28;20103;-52
2022/08/20 10:02:42;;;;;;;16.65;10.57;;;17.50;99.90;;;;;;5038370;28;20040;-53
2022/08/20 10:05:08;;;;;;;17.23;11.80;;;17.50;99.90;;;;;;5038846;28;20420;-55
2022/08/20 10:07:36;;;;;;;15.73;11.52;;;17.50;99.90;;;;;;5038955;28;20025;-53
2022/08/20 10:10:02;;;;;;;17.27;12.48;;;17.50;99.90;;;;;;5038041;28;20032;-55
2022/08/20 10:12:28;;;;;;;12.82;11.48;;;17.50;99.90;;;;;;5039327;28;20033;-56
2022/08/20 10:14:54;;;;;;;11.95;10.48;;;17.70;99.90;;;;;;5041519;28;20021;-56
2022/08/20 10:17:20;;;;;;;14.27;10.85;;;17.80;99.90;;;;;;5061856;28;20105;-54
2022/08/20 10:19:46;;;;;;;13.15;11.75;;;18.00;99.90;;;;;;5063339;28;20368;-55
2022/08/20 10:22:12;;;;;;;14.30;12.45;;;18.00;99.90;;;;;;5071324;28;20031;-57
2022/08/20 10:24:38;;;;;;;15.15;13.43;;;17.90;99.90;;;;;;5074940;28;20499;-52
2022/08/20 10:27:04;;;;;;;15.57;13.82;;;17.80;99.90;;;;;;5074499;28;20029;-53
2022/08/20 10:29:30;;;;;;;18.90;15.15;;;17.90;99.90;;;;;;5072895;28;20028;-56
2022/08/20 10:31:57;;;;;;;17.77;15.95;;;17.90;99.90;;;;;;5054439;28;20032;-53
2022/08/20 10:34:24;;;;;;;19.17;15.70;;;17.90;99.90;;;;;;5054496;28;20100;-53
2022/08/20 10:36:49;;;;;;;20.67;18.45;;;17.80;99.90;;;;;;5054667;28;20025;-52
2022/08/20 10:39:15;;;;;;;23.40;19.33;;;17.60;99.90;;;;;;5054404;28;20029;-52
2022/08/20 10:41:41;;;;;;;19.70;17.70;;;17.60;99.90;;;;;;5054602;28;20033;-52
2022/08/20 10:44:07;;;;;;;21.05;18.80;;;17.70;99.90;;;;;;5053098;28;20460;-54
2022/08/20 10:46:33;;;;;;;21.48;19.27;;;17.70;99.90;;;;;;5036973;28;20041;-50
2022/08/20 10:48:59;;;;;;;20.25;18.08;;;17.80;99.90;;;;;;5034191;28;20147;-53
2022/08/20 10:51:25;;;;;;;21.27;17.27;;;18.00;99.90;;;;;;5042832;28;20460;-53
2022/08/20 10:53:50;;;;;;;24.35;20.00;;;18.00;99.90;;;;;;5053434;28;20021;-52
2022/08/20 10:56:16;;;;;;;23.48;19.48;;;18.00;99.90;;;;;;5053233;28;20069;-53
2022/08/20 10:58:42;;;;;;;20.55;18.40;;;17.90;99.90;;;;;;5053336;28;20048;-52
2022/08/20 11:01:08;;;;;;;19.30;17.27;;;18.00;99.90;;;;;;5053331;28;20037;-51
2022/08/20 11:03:34;;;;;;;21.23;18.77;;;18.00;99.90;;;;;;5051770;28;20491;-52
2022/08/20 11:06:00;;;;;;;21.08;17.58;;;18.00;99.90;;;;;;5053964;28;20033;-52
2022/08/20 11:08:26;;;;;;;21.92;16.80;;;18.10;99.90;;;;;;5053945;28;20033;-52
2022/08/20 11:10:52;;;;;;;19.88;17.77;;;18.00;99.90;;;;;;5053550;28;20031;-50
2022/08/20 11:13:18;;;;;;;22.40;18.00;;;18.00;99.90;;;;;;5053579;28;20055;-53
2022/08/20 11:15:44;;;;;;;21.38;18.73;;;18.00;99.90;;;;;;5044359;28;20014;-51
2022/08/20 11:18:11;;;;;;;20.80;17.55;;;17.90;99.90;;;;;;5033707;28;20075;-51
2022/08/20 11:20:37;;;;;;;21.10;18.65;;;17.90;99.90;;;;;;5033956;28;20037;-51
2022/08/20 11:23:03;;;;;;;21.65;18.80;;;18.00;99.90;;;;;;5033735;28;20362;-52
2022/08/20 11:25:29;;;;;;;22.88;19.30;;;18.00;99.90;;;;;;5033742;28;20116;-51
2022/08/20 11:27:56;;;;;;;23.65;18.58;;;18.00;99.90;;;;;;5033622;28;20029;-51
2022/08/20 11:30:28;;;;;;;22.23;19.50;;;18.00;99.90;;;;;;5052256;28;20537;-51
2022/08/20 11:32:54;;;;;;;18.83;16.80;;;18.20;99.90;;;;;;5053433;28;20036;-50
2022/08/20 11:35:22;;;;;;;23.35;17.33;;;18.30;99.90;;;;;;5053347;28;20036;-50
2022/08/20 11:37:52;;;;;;;21.67;19.23;;;18.30;99.90;;;;;;5053417;28;20041;-51
2022/08/20 11:40:18;;;;;;;19.45;17.45;;;18.40;99.90;;;;;;5053360;28;20543;-51
2022/08/20 11:42:46;;;;;;;22.08;17.60;;;18.40;99.90;;;;;;5052580;28;20166;-50
2022/08/20 11:45:13;;;;;;;19.77;17.77;;;18.50;99.90;;;;;;5052381;28;20480;-51
2022/08/20 11:47:38;;;;;;;22.35;19.52;;;18.60;99.90;;;;;;5050454;28;20036;-53
2022/08/20 11:50:14;;;;;;;20.33;17.35;;;18.60;99.90;;;;;;5052141;28;20021;-50
2022/08/20 11:52:40;;;;;;;20.52;17.95;;;18.60;99.90;;;;;;5051936;28;20017;-54
2022/08/20 11:55:09;;;;;;;19.88;17.75;;;18.60;99.90;;;;;;5050664;28;20494;-51
2022/08/20 11:57:36;;;;;;;20.20;18.10;;;18.50;99.90;;;;;;5051688;28;20048;-51
2022/08/20 12:00:09;;;;;;;23.55;17.40;;;18.50;99.90;;;;;;5051806;28;20059;-52
2022/08/20 12:02:35;;;;;;;19.27;17.17;;;18.50;99.90;;;;;;5050195;28;20031;-52
2022/08/20 12:05:01;;;;;;;18.50;16.23;;;18.60;99.90;;;;;;5051409;28;20159;-50
2022/08/20 12:07:27;;;;;;;19.83;17.75;;;18.50;99.90;;;;;;5050296;28;20419;-52
2022/08/20 12:09:53;;;;;;;19.75;16.67;;;18.50;99.90;;;;;;5049936;28;20063;-51
2022/08/20 12:12:22;;;;;;;21.23;19.02;;;18.50;99.90;;;;;;5048851;28;20023;-50
2022/08/20 12:14:48;;;;;;;17.65;15.88;;;18.50;99.90;;;;;;5050288;28;20016;-55
2022/08/20 12:17:18;;;;;;;17.13;15.35;;;18.70;99.90;;;;;;5042656;28;20488;-50
2022/08/20 12:19:44;;;;;;;17.23;15.43;;;18.50;99.90;;;;;;5030216;28;20108;-51
2022/08/20 12:22:10;;;;;;;18.60;15.00;;;18.60;99.90;;;;;;5031241;28;20507;-52
2022/08/20 12:24:36;;;;;;;18.05;16.25;;;18.60;99.90;;;;;;5031715;28;20025;-51
2022/08/20 12:27:17;;;;;;;17.58;15.65;;;18.50;99.90;;;;;;5031427;28;20025;-52
2022/08/20 12:29:44;;;;;;;16.50;13.57;;;18.40;99.90;;;;;;5031316;28;20033;-51
2022/08/20 12:32:11;;;;;;;18.27;15.82;;;18.40;99.90;;;;;;5031587;28;20028;-51
2022/08/20 12:34:38;;;;;;;16.85;13.55;;;18.40;99.90;;;;;;5031692;28;20368;-50
2022/08/20 12:37:14;;;;;;;16.35;14.30;;;18.30;99.90;;;;;;5031248;28;20049;-55
2022/08/20 12:39:43;;;;;;;18.27;16.25;;;18.30;99.90;;;;;;5030713;28;20029;-52
2022/08/20 12:42:09;;;;;;;25.10;16.98;;;18.20;99.90;;;;;;5031030;28;20481;-51
2022/08/20 12:44:36;;;;;;;19.13;15.70;;;18.30;99.90;;;;;;5031192;28;20026;-51
2022/08/20 12:47:09;;;;;;;19.00;17.00;;;18.30;99.90;;;;;;5029920;28;20476;-51
2022/08/20 12:49:36;;;;;;;22.00;15.70;;;18.30;99.90;;;;;;5031065;28;20487;-50